sensor_id;sensor_type;location;lat;lon;timestamp;P1;durP1;ratioP1;P2;durP2;ratioP2
82850;SDS011;72609;45.768;4.884;2024-02-21T00:01:35;9.57;;;5.15;;
82850;SDS011;72609;45.768;4.884;2024-02-21T00:04:01;13.80;;;5.63;;
82850;SDS011;72609;45.768;4.884;2024-02-21T00:06:27;14.10;;;5.97;;
82850;SDS011;72609;45.768;4.884;2024-02-21T00:08:52;10.35;;;4.97;;
82850;SDS011;72609;45.768;4.884;2024-02-21T00:11:18;11.30;;;5.53;;
82850;SDS011;72609;45.768;4.884;2024-02-21T00:13:44;10.82;;;5.65;;
82850;SDS011;72609;45.768;4.884;2024-02-21T00:16:09;9.55;;;5.22;;
82850;SDS011;72609;45.768;4.884;2024-02-21T00:18:36;8.52;;;5.63;;
82850;SDS011;72609;45.768;4.884;2024-02-21T00:21:01;11.68;;;4.68;;
82850;SDS011;72609;45.768;4.884;2024-02-21T00:23:28;17.17;;;5.00;;
82850;SDS011;72609;45.768;4.884;2024-02-21T00:25:53;11.63;;;5.90;;
82850;SDS011;72609;45.768;4.884;2024-02-21T00:28:19;12.10;;;5.25;;
82850;SDS011;72609;45.768;4.884;2024-02-21T00:30:44;11.98;;;5.15;;
82850;SDS011;72609;45.768;4.884;2024-02-21T00:33:12;13.43;;;6.50;;
82850;SDS011;72609;45.768;4.884;2024-02-21T00:35:38;11.40;;;5.53;;
82850;SDS011;72609;45.768;4.884;2024-02-21T00:38:04;14.88;;;5.85;;
82850;SDS011;72609;45.768;4.884;2024-02-21T00:40:29;9.30;;;4.82;;
82850;SDS011;72609;45.768;4.884;2024-02-21T00:42:55;13.23;;;6.32;;
82850;SDS011;72609;45.768;4.884;2024-02-21T00:45:21;13.25;;;6.25;;
82850;SDS011;72609;45.768;4.884;2024-02-21T00:47:47;12.95;;;6.72;;
82850;SDS011;72609;45.768;4.884;2024-02-21T00:50:12;11.32;;;6.05;;
82850;SDS011;72609;45.768;4.884;2024-02-21T00:52:38;17.20;;;7.18;;
82850;SDS011;72609;45.768;4.884;2024-02-21T00:55:04;16.27;;;7.22;;
82850;SDS011;72609;45.768;4.884;2024-02-21T00:57:30;13.70;;;6.45;;
82850;SDS011;72609;45.768;4.884;2024-02-21T01:02:22;11.68;;;7.03;;
82850;SDS011;72609;45.768;4.884;2024-02-21T01:04:48;11.63;;;6.38;;
82850;SDS011;72609;45.768;4.884;2024-02-21T01:07:13;13.13;;;6.85;;
82850;SDS011;72609;45.768;4.884;2024-02-21T01:09:39;14.05;;;7.63;;
82850;SDS011;72609;45.768;4.884;2024-02-21T01:12:05;10.25;;;6.25;;
82850;SDS011;72609;45.768;4.884;2024-02-21T01:14:30;12.80;;;7.45;;
82850;SDS011;72609;45.768;4.884;2024-02-21T01:16:56;14.95;;;7.15;;
82850;SDS011;72609;45.768;4.884;2024-02-21T01:19:22;12.18;;;6.13;;
82850;SDS011;72609;45.768;4.884;2024-02-21T01:21:48;13.57;;;6.50;;
82850;SDS011;72609;45.768;4.884;2024-02-21T01:24:14;10.85;;;5.75;;
82850;SDS011;72609;45.768;4.884;2024-02-21T01:26:40;12.45;;;6.32;;
82850;SDS011;72609;45.768;4.884;2024-02-21T01:29:06;16.50;;;7.47;;
82850;SDS011;72609;45.768;4.884;2024-02-21T01:31:31;8.32;;;6.22;;
82850;SDS011;72609;45.768;4.884;2024-02-21T01:33:57;13.70;;;6.68;;
82850;SDS011;72609;45.768;4.884;2024-02-21T01:36:23;12.57;;;7.63;;
82850;SDS011;72609;45.768;4.884;2024-02-21T01:38:48;13.35;;;7.15;;
82850;SDS011;72609;45.768;4.884;2024-02-21T01:41:14;22.30;;;8.10;;
82850;SDS011;72609;45.768;4.884;2024-02-21T01:43:41;13.65;;;7.50;;
82850;SDS011;72609;45.768;4.884;2024-02-21T01:46:07;13.38;;;6.22;;
82850;SDS011;72609;45.768;4.884;2024-02-21T01:48:32;16.98;;;7.60;;
82850;SDS011;72609;45.768;4.884;2024-02-21T01:50:59;14.10;;;7.68;;
82850;SDS011;72609;45.768;4.884;2024-02-21T01:53:27;13.68;;;7.57;;
82850;SDS011;72609;45.768;4.884;2024-02-21T01:55:55;11.63;;;7.20;;
82850;SDS011;72609;45.768;4.884;2024-02-21T01:58:21;20.45;;;7.22;;
82850;SDS011;72609;45.768;4.884;2024-02-21T02:00:48;16.10;;;7.60;;
82850;SDS011;72609;45.768;4.884;2024-02-21T02:03:15;12.38;;;6.97;;
82850;SDS011;72609;45.768;4.884;2024-02-21T02:05:44;12.38;;;7.05;;
82850;SDS011;72609;45.768;4.884;2024-02-21T02:08:11;13.90;;;7.38;;
82850;SDS011;72609;45.768;4.884;2024-02-21T02:10:40;8.73;;;6.47;;
82850;SDS011;72609;45.768;4.884;2024-02-21T02:13:06;10.68;;;6.28;;
82850;SDS011;72609;45.768;4.884;2024-02-21T02:15:45;13.60;;;6.45;;
82850;SDS011;72609;45.768;4.884;2024-02-21T02:18:15;14.52;;;7.57;;
82850;SDS011;72609;45.768;4.884;2024-02-21T02:20:41;12.45;;;6.97;;
82850;SDS011;72609;45.768;4.884;2024-02-21T02:23:07;12.48;;;7.22;;
82850;SDS011;72609;45.768;4.884;2024-02-21T02:25:42;15.98;;;7.85;;
82850;SDS011;72609;45.768;4.884;2024-02-21T02:28:08;11.45;;;7.22;;
82850;SDS011;72609;45.768;4.884;2024-02-21T02:30:35;16.77;;;8.82;;
82850;SDS011;72609;45.768;4.884;2024-02-21T02:33:01;15.52;;;7.18;;
82850;SDS011;72609;45.768;4.884;2024-02-21T02:35:30;12.25;;;5.97;;
82850;SDS011;72609;45.768;4.884;2024-02-21T02:37:56;13.25;;;6.95;;
82850;SDS011;72609;45.768;4.884;2024-02-21T02:40:22;12.95;;;6.65;;
82850;SDS011;72609;45.768;4.884;2024-02-21T02:42:48;21.58;;;8.80;;
82850;SDS011;72609;45.768;4.884;2024-02-21T02:45:18;11.65;;;7.07;;
82850;SDS011;72609;45.768;4.884;2024-02-21T02:47:47;14.57;;;7.35;;
82850;SDS011;72609;45.768;4.884;2024-02-21T02:50:12;11.75;;;6.85;;
82850;SDS011;72609;45.768;4.884;2024-02-21T02:52:39;11.48;;;7.38;;
82850;SDS011;72609;45.768;4.884;2024-02-21T02:55:04;9.80;;;5.75;;
82850;SDS011;72609;45.768;4.884;2024-02-21T02:57:31;12.57;;;5.82;;
82850;SDS011;72609;45.768;4.884;2024-02-21T02:59:57;12.10;;;6.47;;
82850;SDS011;72609;45.768;4.884;2024-02-21T03:02:22;10.85;;;5.82;;
82850;SDS011;72609;45.768;4.884;2024-02-21T03:04:48;9.38;;;6.18;;
82850;SDS011;72609;45.768;4.884;2024-02-21T03:07:14;11.57;;;7.22;;
82850;SDS011;72609;45.768;4.884;2024-02-21T03:09:40;11.40;;;6.38;;
82850;SDS011;72609;45.768;4.884;2024-02-21T03:12:08;15.05;;;6.38;;
82850;SDS011;72609;45.768;4.884;2024-02-21T03:14:34;18.42;;;7.25;;
82850;SDS011;72609;45.768;4.884;2024-02-21T03:17:00;12.73;;;5.40;;
82850;SDS011;72609;45.768;4.884;2024-02-21T03:19:25;12.20;;;6.63;;
82850;SDS011;72609;45.768;4.884;2024-02-21T03:21:51;9.52;;;5.95;;
82850;SDS011;72609;45.768;4.884;2024-02-21T03:24:18;12.52;;;8.27;;
82850;SDS011;72609;45.768;4.884;2024-02-21T03:26:44;10.90;;;5.97;;
82850;SDS011;72609;45.768;4.884;2024-02-21T03:29:11;13.25;;;6.75;;
82850;SDS011;72609;45.768;4.884;2024-02-21T03:31:37;13.95;;;6.93;;
82850;SDS011;72609;45.768;4.884;2024-02-21T03:34:02;10.88;;;7.88;;
82850;SDS011;72609;45.768;4.884;2024-02-21T03:36:28;15.02;;;6.88;;
82850;SDS011;72609;45.768;4.884;2024-02-21T03:38:54;12.73;;;7.28;;
82850;SDS011;72609;45.768;4.884;2024-02-21T03:41:20;11.15;;;7.38;;
82850;SDS011;72609;45.768;4.884;2024-02-21T03:43:46;12.77;;;6.65;;
82850;SDS011;72609;45.768;4.884;2024-02-21T03:46:12;11.82;;;6.25;;
82850;SDS011;72609;45.768;4.884;2024-02-21T03:48:37;14.65;;;6.97;;
82850;SDS011;72609;45.768;4.884;2024-02-21T03:51:03;15.50;;;7.50;;
82850;SDS011;72609;45.768;4.884;2024-02-21T03:53:29;14.20;;;7.10;;
82850;SDS011;72609;45.768;4.884;2024-02-21T03:55:55;12.70;;;6.90;;
82850;SDS011;72609;45.768;4.884;2024-02-21T03:58:21;14.27;;;7.65;;
82850;SDS011;72609;45.768;4.884;2024-02-21T04:00:47;12.70;;;7.57;;
82850;SDS011;72609;45.768;4.884;2024-02-21T04:03:13;14.27;;;7.00;;
82850;SDS011;72609;45.768;4.884;2024-02-21T04:05:38;11.73;;;7.30;;
82850;SDS011;72609;45.768;4.884;2024-02-21T04:08:04;11.48;;;7.53;;
82850;SDS011;72609;45.768;4.884;2024-02-21T04:10:30;13.70;;;7.03;;
82850;SDS011;72609;45.768;4.884;2024-02-21T04:12:56;12.40;;;7.45;;
82850;SDS011;72609;45.768;4.884;2024-02-21T04:15:21;21.08;;;8.20;;
82850;SDS011;72609;45.768;4.884;2024-02-21T04:17:47;12.35;;;7.25;;
82850;SDS011;72609;45.768;4.884;2024-02-21T04:20:14;13.85;;;7.55;;
82850;SDS011;72609;45.768;4.884;2024-02-21T04:22:42;11.15;;;7.50;;
82850;SDS011;72609;45.768;4.884;2024-02-21T04:25:09;21.70;;;9.35;;
82850;SDS011;72609;45.768;4.884;2024-02-21T04:27:36;14.10;;;7.47;;
82850;SDS011;72609;45.768;4.884;2024-02-21T04:30:03;18.42;;;7.63;;
82850;SDS011;72609;45.768;4.884;2024-02-21T04:32:28;13.55;;;6.90;;
82850;SDS011;72609;45.768;4.884;2024-02-21T04:34:54;10.88;;;7.15;;
82850;SDS011;72609;45.768;4.884;2024-02-21T04:37:20;23.55;;;7.53;;
82850;SDS011;72609;45.768;4.884;2024-02-21T04:39:45;12.85;;;6.85;;
82850;SDS011;72609;45.768;4.884;2024-02-21T04:42:11;15.50;;;7.55;;
82850;SDS011;72609;45.768;4.884;2024-02-21T04:44:37;11.32;;;7.78;;
82850;SDS011;72609;45.768;4.884;2024-02-21T04:47:03;12.82;;;7.05;;
82850;SDS011;72609;45.768;4.884;2024-02-21T04:49:29;15.45;;;7.82;;
82850;SDS011;72609;45.768;4.884;2024-02-21T04:51:55;16.63;;;7.22;;
82850;SDS011;72609;45.768;4.884;2024-02-21T04:54:20;11.25;;;7.07;;
82850;SDS011;72609;45.768;4.884;2024-02-21T04:56:46;13.07;;;6.88;;
82850;SDS011;72609;45.768;4.884;2024-02-21T04:59:11;13.55;;;7.55;;
82850;SDS011;72609;45.768;4.884;2024-02-21T05:01:37;22.30;;;8.57;;
82850;SDS011;72609;45.768;4.884;2024-02-21T05:04:03;12.65;;;6.63;;
82850;SDS011;72609;45.768;4.884;2024-02-21T05:06:29;16.77;;;8.32;;
82850;SDS011;72609;45.768;4.884;2024-02-21T05:08:54;13.25;;;7.47;;
82850;SDS011;72609;45.768;4.884;2024-02-21T05:11:23;14.00;;;7.70;;
82850;SDS011;72609;45.768;4.884;2024-02-21T05:13:49;15.98;;;7.97;;
82850;SDS011;72609;45.768;4.884;2024-02-21T05:16:15;12.45;;;7.40;;
82850;SDS011;72609;45.768;4.884;2024-02-21T05:18:41;15.52;;;8.77;;
82850;SDS011;72609;45.768;4.884;2024-02-21T05:21:07;15.57;;;9.55;;
82850;SDS011;72609;45.768;4.884;2024-02-21T05:23:33;14.80;;;7.63;;
82850;SDS011;72609;45.768;4.884;2024-02-21T05:25:59;15.30;;;7.85;;
82850;SDS011;72609;45.768;4.884;2024-02-21T05:28:24;21.45;;;8.80;;
82850;SDS011;72609;45.768;4.884;2024-02-21T05:30:50;14.23;;;8.20;;
82850;SDS011;72609;45.768;4.884;2024-02-21T05:33:15;14.07;;;7.50;;
82850;SDS011;72609;45.768;4.884;2024-02-21T05:35:46;16.05;;;8.07;;
82850;SDS011;72609;45.768;4.884;2024-02-21T05:38:13;13.57;;;7.13;;
82850;SDS011;72609;45.768;4.884;2024-02-21T05:40:39;16.30;;;7.25;;
82850;SDS011;72609;45.768;4.884;2024-02-21T05:43:05;20.55;;;8.25;;
82850;SDS011;72609;45.768;4.884;2024-02-21T05:45:31;15.48;;;7.68;;
82850;SDS011;72609;45.768;4.884;2024-02-21T05:47:57;15.52;;;7.20;;
82850;SDS011;72609;45.768;4.884;2024-02-21T05:50:23;11.13;;;6.35;;
82850;SDS011;72609;45.768;4.884;2024-02-21T05:52:51;12.73;;;6.75;;
82850;SDS011;72609;45.768;4.884;2024-02-21T05:55:17;14.70;;;8.13;;
82850;SDS011;72609;45.768;4.884;2024-02-21T05:57:43;18.38;;;7.50;;
82850;SDS011;72609;45.768;4.884;2024-02-21T06:00:09;13.27;;;7.00;;
82850;SDS011;72609;45.768;4.884;2024-02-21T06:02:35;12.65;;;7.30;;
82850;SDS011;72609;45.768;4.884;2024-02-21T06:05:00;12.93;;;6.28;;
82850;SDS011;72609;45.768;4.884;2024-02-21T06:07:26;12.55;;;7.75;;
82850;SDS011;72609;45.768;4.884;2024-02-21T06:09:52;13.63;;;7.75;;
82850;SDS011;72609;45.768;4.884;2024-02-21T06:12:17;12.27;;;7.00;;
82850;SDS011;72609;45.768;4.884;2024-02-21T06:14:43;13.13;;;8.30;;
82850;SDS011;72609;45.768;4.884;2024-02-21T06:17:08;12.82;;;7.07;;
82850;SDS011;72609;45.768;4.884;2024-02-21T06:19:34;15.43;;;8.93;;
82850;SDS011;72609;45.768;4.884;2024-02-21T06:21:59;15.10;;;6.45;;
82850;SDS011;72609;45.768;4.884;2024-02-21T06:24:25;12.10;;;7.07;;
82850;SDS011;72609;45.768;4.884;2024-02-21T06:26:51;20.27;;;7.45;;
82850;SDS011;72609;45.768;4.884;2024-02-21T06:29:16;15.02;;;7.10;;
82850;SDS011;72609;45.768;4.884;2024-02-21T06:31:42;16.17;;;7.82;;
82850;SDS011;72609;45.768;4.884;2024-02-21T06:34:07;19.98;;;7.78;;
82850;SDS011;72609;45.768;4.884;2024-02-21T06:36:33;14.00;;;6.50;;
82850;SDS011;72609;45.768;4.884;2024-02-21T06:38:59;12.40;;;7.43;;
82850;SDS011;72609;45.768;4.884;2024-02-21T06:41:24;14.35;;;6.90;;
82850;SDS011;72609;45.768;4.884;2024-02-21T06:43:50;11.18;;;7.22;;
82850;SDS011;72609;45.768;4.884;2024-02-21T06:46:22;12.98;;;7.20;;
82850;SDS011;72609;45.768;4.884;2024-02-21T06:48:53;13.48;;;7.05;;
82850;SDS011;72609;45.768;4.884;2024-02-21T06:51:21;13.05;;;8.18;;
82850;SDS011;72609;45.768;4.884;2024-02-21T06:53:47;14.77;;;8.13;;
82850;SDS011;72609;45.768;4.884;2024-02-21T06:56:13;13.77;;;7.93;;
82850;SDS011;72609;45.768;4.884;2024-02-21T06:58:38;13.80;;;7.90;;
82850;SDS011;72609;45.768;4.884;2024-02-21T07:01:04;12.45;;;7.60;;
82850;SDS011;72609;45.768;4.884;2024-02-21T07:03:29;14.57;;;7.88;;
82850;SDS011;72609;45.768;4.884;2024-02-21T07:05:55;18.08;;;7.55;;
82850;SDS011;72609;45.768;4.884;2024-02-21T07:08:21;13.70;;;7.70;;
82850;SDS011;72609;45.768;4.884;2024-02-21T07:10:46;12.07;;;7.05;;
82850;SDS011;72609;45.768;4.884;2024-02-21T07:13:12;11.30;;;6.45;;
82850;SDS011;72609;45.768;4.884;2024-02-21T07:15:38;17.05;;;7.32;;
82850;SDS011;72609;45.768;4.884;2024-02-21T07:18:04;13.88;;;5.47;;
82850;SDS011;72609;45.768;4.884;2024-02-21T07:20:29;10.63;;;5.80;;
82850;SDS011;72609;45.768;4.884;2024-02-21T07:22:55;10.43;;;6.85;;
82850;SDS011;72609;45.768;4.884;2024-02-21T07:25:21;15.73;;;5.43;;
82850;SDS011;72609;45.768;4.884;2024-02-21T07:27:46;8.75;;;5.80;;
82850;SDS011;72609;45.768;4.884;2024-02-21T07:30:12;24.58;;;7.00;;
82850;SDS011;72609;45.768;4.884;2024-02-21T07:32:38;13.43;;;7.32;;
82850;SDS011;72609;45.768;4.884;2024-02-21T07:35:03;14.05;;;7.30;;
82850;SDS011;72609;45.768;4.884;2024-02-21T07:37:30;17.85;;;6.40;;
82850;SDS011;72609;45.768;4.884;2024-02-21T07:39:56;16.15;;;6.28;;
82850;SDS011;72609;45.768;4.884;2024-02-21T07:42:21;14.00;;;6.40;;
82850;SDS011;72609;45.768;4.884;2024-02-21T07:44:47;12.23;;;6.43;;
82850;SDS011;72609;45.768;4.884;2024-02-21T07:47:12;11.35;;;7.07;;
82850;SDS011;72609;45.768;4.884;2024-02-21T07:49:43;17.20;;;7.18;;
82850;SDS011;72609;45.768;4.884;2024-02-21T07:52:09;12.65;;;6.20;;
82850;SDS011;72609;45.768;4.884;2024-02-21T07:54:35;15.35;;;6.47;;
82850;SDS011;72609;45.768;4.884;2024-02-21T07:57:00;12.57;;;5.78;;
82850;SDS011;72609;45.768;4.884;2024-02-21T07:59:26;20.35;;;7.55;;
82850;SDS011;72609;45.768;4.884;2024-02-21T08:01:52;10.20;;;5.78;;
82850;SDS011;72609;45.768;4.884;2024-02-21T08:04:21;13.23;;;6.65;;
82850;SDS011;72609;45.768;4.884;2024-02-21T08:06:50;15.55;;;7.57;;
82850;SDS011;72609;45.768;4.884;2024-02-21T08:09:20;20.27;;;6.47;;
82850;SDS011;72609;45.768;4.884;2024-02-21T08:11:49;11.98;;;5.90;;
82850;SDS011;72609;45.768;4.884;2024-02-21T08:14:14;12.93;;;5.68;;
82850;SDS011;72609;45.768;4.884;2024-02-21T08:16:41;13.00;;;6.78;;
82850;SDS011;72609;45.768;4.884;2024-02-21T08:19:07;13.10;;;7.32;;
82850;SDS011;72609;45.768;4.884;2024-02-21T08:21:33;17.10;;;6.88;;
82850;SDS011;72609;45.768;4.884;2024-02-21T08:23:58;15.75;;;6.28;;
82850;SDS011;72609;45.768;4.884;2024-02-21T08:26:24;19.15;;;6.30;;
82850;SDS011;72609;45.768;4.884;2024-02-21T08:28:52;13.73;;;5.68;;
82850;SDS011;72609;45.768;4.884;2024-02-21T08:31:19;19.50;;;6.40;;
82850;SDS011;72609;45.768;4.884;2024-02-21T08:33:45;10.90;;;6.07;;
82850;SDS011;72609;45.768;4.884;2024-02-21T08:36:19;11.25;;;5.70;;
82850;SDS011;72609;45.768;4.884;2024-02-21T08:38:45;15.85;;;5.97;;
82850;SDS011;72609;45.768;4.884;2024-02-21T08:41:11;12.63;;;5.43;;
82850;SDS011;72609;45.768;4.884;2024-02-21T08:43:37;14.18;;;4.80;;
82850;SDS011;72609;45.768;4.884;2024-02-21T08:46:03;14.57;;;5.70;;
82850;SDS011;72609;45.768;4.884;2024-02-21T08:48:30;9.70;;;6.00;;
82850;SDS011;72609;45.768;4.884;2024-02-21T08:50:55;17.85;;;5.43;;
82850;SDS011;72609;45.768;4.884;2024-02-21T08:53:21;17.70;;;7.22;;
82850;SDS011;72609;45.768;4.884;2024-02-21T08:55:46;15.27;;;7.03;;
82850;SDS011;72609;45.768;4.884;2024-02-21T08:58:12;14.13;;;7.15;;
82850;SDS011;72609;45.768;4.884;2024-02-21T09:00:39;14.23;;;6.55;;
82850;SDS011;72609;45.768;4.884;2024-02-21T09:03:05;14.95;;;6.93;;
82850;SDS011;72609;45.768;4.884;2024-02-21T09:05:31;14.82;;;7.65;;
82850;SDS011;72609;45.768;4.884;2024-02-21T09:07:56;11.88;;;6.18;;
82850;SDS011;72609;45.768;4.884;2024-02-21T09:10:22;23.23;;;7.45;;
82850;SDS011;72609;45.768;4.884;2024-02-21T09:12:47;14.00;;;7.20;;
82850;SDS011;72609;45.768;4.884;2024-02-21T09:15:13;13.02;;;6.47;;
82850;SDS011;72609;45.768;4.884;2024-02-21T09:17:39;11.27;;;6.72;;
82850;SDS011;72609;45.768;4.884;2024-02-21T09:20:05;12.43;;;6.88;;
82850;SDS011;72609;45.768;4.884;2024-02-21T09:24:59;18.65;;;6.95;;
82850;SDS011;72609;45.768;4.884;2024-02-21T09:27:25;12.30;;;6.63;;
82850;SDS011;72609;45.768;4.884;2024-02-21T09:29:50;11.32;;;6.32;;
82850;SDS011;72609;45.768;4.884;2024-02-21T09:32:16;11.20;;;5.85;;
82850;SDS011;72609;45.768;4.884;2024-02-21T09:34:44;13.35;;;7.15;;
82850;SDS011;72609;45.768;4.884;2024-02-21T09:37:10;17.13;;;6.72;;
82850;SDS011;72609;45.768;4.884;2024-02-21T09:39:35;13.32;;;6.63;;
82850;SDS011;72609;45.768;4.884;2024-02-21T09:42:05;13.05;;;5.70;;
82850;SDS011;72609;45.768;4.884;2024-02-21T09:44:37;10.00;;;5.07;;
82850;SDS011;72609;45.768;4.884;2024-02-21T09:47:04;8.90;;;5.45;;
82850;SDS011;72609;45.768;4.884;2024-02-21T09:49:35;8.50;;;4.97;;
82850;SDS011;72609;45.768;4.884;2024-02-21T09:52:04;12.93;;;4.93;;
82850;SDS011;72609;45.768;4.884;2024-02-21T09:54:32;11.70;;;5.07;;
82850;SDS011;72609;45.768;4.884;2024-02-21T09:57:01;11.82;;;5.30;;
82850;SDS011;72609;45.768;4.884;2024-02-21T09:59:31;13.25;;;5.50;;
82850;SDS011;72609;45.768;4.884;2024-02-21T10:01:57;10.07;;;5.03;;
82850;SDS011;72609;45.768;4.884;2024-02-21T10:04:26;11.10;;;4.78;;
82850;SDS011;72609;45.768;4.884;2024-02-21T10:06:55;8.50;;;4.82;;
82850;SDS011;72609;45.768;4.884;2024-02-21T10:09:25;9.65;;;4.93;;
82850;SDS011;72609;45.768;4.884;2024-02-21T10:11:53;19.58;;;5.13;;
82850;SDS011;72609;45.768;4.884;2024-02-21T10:14:19;12.90;;;6.30;;
82850;SDS011;72609;45.768;4.884;2024-02-21T10:16:47;11.05;;;5.63;;
82850;SDS011;72609;45.768;4.884;2024-02-21T10:19:19;8.20;;;4.88;;
82850;SDS011;72609;45.768;4.884;2024-02-21T10:22:05;13.10;;;4.35;;
82850;SDS011;72609;45.768;4.884;2024-02-21T10:24:33;9.57;;;3.97;;
82850;SDS011;72609;45.768;4.884;2024-02-21T10:27:02;7.75;;;4.07;;
82850;SDS011;72609;45.768;4.884;2024-02-21T10:29:30;11.02;;;4.32;;
82850;SDS011;72609;45.768;4.884;2024-02-21T10:34:36;7.68;;;4.00;;
82850;SDS011;72609;45.768;4.884;2024-02-21T10:37:02;8.45;;;4.88;;
82850;SDS011;72609;45.768;4.884;2024-02-21T10:39:32;5.10;;;3.38;;
82850;SDS011;72609;45.768;4.884;2024-02-21T10:41:59;9.05;;;4.55;;
82850;SDS011;72609;45.768;4.884;2024-02-21T10:44:29;7.85;;;4.95;;
82850;SDS011;72609;45.768;4.884;2024-02-21T10:47:00;7.65;;;4.25;;
82850;SDS011;72609;45.768;4.884;2024-02-21T10:49:36;11.70;;;4.35;;
82850;SDS011;72609;45.768;4.884;2024-02-21T10:52:14;9.18;;;4.97;;
82850;SDS011;72609;45.768;4.884;2024-02-21T10:59:52;9.70;;;4.80;;
82850;SDS011;72609;45.768;4.884;2024-02-21T11:02:19;9.90;;;4.45;;
82850;SDS011;72609;45.768;4.884;2024-02-21T11:04:45;5.53;;;3.50;;
82850;SDS011;72609;45.768;4.884;2024-02-21T11:07:12;6.32;;;4.03;;
82850;SDS011;72609;45.768;4.884;2024-02-21T11:12:05;16.35;;;5.35;;
82850;SDS011;72609;45.768;4.884;2024-02-21T11:14:31;9.38;;;4.18;;
82850;SDS011;72609;45.768;4.884;2024-02-21T11:16:57;8.35;;;3.70;;
82850;SDS011;72609;45.768;4.884;2024-02-21T11:19:26;11.48;;;4.03;;
82850;SDS011;72609;45.768;4.884;2024-02-21T11:21:54;10.25;;;4.60;;
82850;SDS011;72609;45.768;4.884;2024-02-21T11:24:30;11.05;;;4.53;;
82850;SDS011;72609;45.768;4.884;2024-02-21T11:27:09;12.38;;;4.55;;
82850;SDS011;72609;45.768;4.884;2024-02-21T11:29:44;8.15;;;4.43;;
82850;SDS011;72609;45.768;4.884;2024-02-21T11:32:11;13.85;;;5.55;;
82850;SDS011;72609;45.768;4.884;2024-02-21T11:34:40;16.17;;;4.82;;
82850;SDS011;72609;45.768;4.884;2024-02-21T11:37:15;8.05;;;4.07;;
82850;SDS011;72609;45.768;4.884;2024-02-21T11:39:41;10.27;;;4.57;;
82850;SDS011;72609;45.768;4.884;2024-02-21T11:42:07;12.60;;;4.53;;
82850;SDS011;72609;45.768;4.884;2024-02-21T11:47:00;12.63;;;3.72;;
82850;SDS011;72609;45.768;4.884;2024-02-21T11:49:27;12.85;;;5.15;;
82850;SDS011;72609;45.768;4.884;2024-02-21T11:51:57;12.23;;;4.45;;
82850;SDS011;72609;45.768;4.884;2024-02-21T11:54:24;8.48;;;3.95;;
82850;SDS011;72609;45.768;4.884;2024-02-21T11:56:49;16.30;;;5.40;;
82850;SDS011;72609;45.768;4.884;2024-02-21T11:59:15;8.63;;;3.80;;
82850;SDS011;72609;45.768;4.884;2024-02-21T12:01:41;7.93;;;3.92;;
82850;SDS011;72609;45.768;4.884;2024-02-21T12:04:06;9.25;;;4.32;;
82850;SDS011;72609;45.768;4.884;2024-02-21T12:06:33;7.75;;;3.50;;
82850;SDS011;72609;45.768;4.884;2024-02-21T12:08:58;10.63;;;4.35;;
82850;SDS011;72609;45.768;4.884;2024-02-21T12:11:24;8.48;;;3.72;;
82850;SDS011;72609;45.768;4.884;2024-02-21T12:13:59;5.05;;;3.50;;
82850;SDS011;72609;45.768;4.884;2024-02-21T12:16:27;10.55;;;3.78;;
82850;SDS011;72609;45.768;4.884;2024-02-21T12:18:54;8.52;;;3.45;;
82850;SDS011;72609;45.768;4.884;2024-02-21T12:21:23;8.85;;;4.00;;
82850;SDS011;72609;45.768;4.884;2024-02-21T12:23:49;7.13;;;3.15;;
82850;SDS011;72609;45.768;4.884;2024-02-21T12:26:15;9.68;;;3.72;;
82850;SDS011;72609;45.768;4.884;2024-02-21T12:28:40;5.13;;;3.63;;
82850;SDS011;72609;45.768;4.884;2024-02-21T12:31:06;6.88;;;2.92;;
82850;SDS011;72609;45.768;4.884;2024-02-21T12:33:31;5.32;;;2.90;;
82850;SDS011;72609;45.768;4.884;2024-02-21T12:35:58;7.40;;;2.95;;
82850;SDS011;72609;45.768;4.884;2024-02-21T12:38:23;7.18;;;3.63;;
82850;SDS011;72609;45.768;4.884;2024-02-21T12:40:49;16.65;;;4.07;;
82850;SDS011;72609;45.768;4.884;2024-02-21T12:43:14;13.30;;;2.78;;
82850;SDS011;72609;45.768;4.884;2024-02-21T12:45:40;8.90;;;3.85;;
82850;SDS011;72609;45.768;4.884;2024-02-21T12:48:06;7.78;;;3.45;;
82850;SDS011;72609;45.768;4.884;2024-02-21T12:50:31;7.10;;;2.92;;
82850;SDS011;72609;45.768;4.884;2024-02-21T12:52:57;9.10;;;3.95;;
82850;SDS011;72609;45.768;4.884;2024-02-21T12:55:23;7.18;;;3.40;;
82850;SDS011;72609;45.768;4.884;2024-02-21T12:57:49;6.10;;;3.30;;
82850;SDS011;72609;45.768;4.884;2024-02-21T13:00:14;5.22;;;3.03;;
82850;SDS011;72609;45.768;4.884;2024-02-21T13:02:40;8.88;;;3.92;;
82850;SDS011;72609;45.768;4.884;2024-02-21T13:05:06;9.07;;;2.97;;
82850;SDS011;72609;45.768;4.884;2024-02-21T13:07:33;7.70;;;3.00;;
82850;SDS011;72609;45.768;4.884;2024-02-21T13:12:25;4.90;;;2.55;;
82850;SDS011;72609;45.768;4.884;2024-02-21T13:14:58;5.88;;;3.13;;
82850;SDS011;72609;45.768;4.884;2024-02-21T13:17:23;10.30;;;2.85;;
82850;SDS011;72609;45.768;4.884;2024-02-21T13:19:49;7.10;;;2.60;;
82850;SDS011;72609;45.768;4.884;2024-02-21T13:22:15;6.93;;;3.13;;
82850;SDS011;72609;45.768;4.884;2024-02-21T13:24:41;8.30;;;2.90;;
82850;SDS011;72609;45.768;4.884;2024-02-21T13:27:06;8.38;;;2.95;;
82850;SDS011;72609;45.768;4.884;2024-02-21T13:29:32;5.53;;;2.70;;
82850;SDS011;72609;45.768;4.884;2024-02-21T13:31:57;7.05;;;2.60;;
82850;SDS011;72609;45.768;4.884;2024-02-21T13:34:23;5.85;;;2.90;;
82850;SDS011;72609;45.768;4.884;2024-02-21T13:39:15;8.27;;;2.90;;
82850;SDS011;72609;45.768;4.884;2024-02-21T13:41:41;10.93;;;2.63;;
82850;SDS011;72609;45.768;4.884;2024-02-21T13:46:34;6.72;;;2.30;;
82850;SDS011;72609;45.768;4.884;2024-02-21T13:49:03;6.20;;;2.60;;
82850;SDS011;72609;45.768;4.884;2024-02-21T13:51:31;9.60;;;2.92;;
82850;SDS011;72609;45.768;4.884;2024-02-21T13:53:57;9.55;;;3.00;;
82850;SDS011;72609;45.768;4.884;2024-02-21T13:56:24;4.90;;;2.25;;
82850;SDS011;72609;45.768;4.884;2024-02-21T13:58:49;6.55;;;2.67;;
82850;SDS011;72609;45.768;4.884;2024-02-21T14:01:15;6.93;;;2.90;;
82850;SDS011;72609;45.768;4.884;2024-02-21T14:03:41;6.05;;;2.92;;
82850;SDS011;72609;45.768;4.884;2024-02-21T14:06:06;5.97;;;3.10;;
82850;SDS011;72609;45.768;4.884;2024-02-21T14:08:32;13.25;;;3.05;;
82850;SDS011;72609;45.768;4.884;2024-02-21T14:10:59;5.75;;;3.17;;
82850;SDS011;72609;45.768;4.884;2024-02-21T14:13:25;6.65;;;3.22;;
82850;SDS011;72609;45.768;4.884;2024-02-21T14:15:51;5.88;;;3.17;;
82850;SDS011;72609;45.768;4.884;2024-02-21T14:18:16;9.50;;;3.00;;
82850;SDS011;72609;45.768;4.884;2024-02-21T14:20:42;6.10;;;2.63;;
82850;SDS011;72609;45.768;4.884;2024-02-21T14:23:08;9.63;;;3.20;;
82850;SDS011;72609;45.768;4.884;2024-02-21T14:25:34;6.82;;;2.80;;
82850;SDS011;72609;45.768;4.884;2024-02-21T14:27:59;5.38;;;3.10;;
82850;SDS011;72609;45.768;4.884;2024-02-21T14:30:28;6.18;;;2.63;;
82850;SDS011;72609;45.768;4.884;2024-02-21T14:32:54;6.65;;;3.28;;
82850;SDS011;72609;45.768;4.884;2024-02-21T14:35:20;4.50;;;2.70;;
82850;SDS011;72609;45.768;4.884;2024-02-21T14:37:45;6.35;;;2.45;;
82850;SDS011;72609;45.768;4.884;2024-02-21T14:40:13;7.72;;;3.55;;
82850;SDS011;72609;45.768;4.884;2024-02-21T14:42:39;4.72;;;2.30;;
82850;SDS011;72609;45.768;4.884;2024-02-21T14:45:05;6.63;;;2.75;;
82850;SDS011;72609;45.768;4.884;2024-02-21T14:47:31;6.50;;;3.05;;
82850;SDS011;72609;45.768;4.884;2024-02-21T14:49:58;4.13;;;2.42;;
82850;SDS011;72609;45.768;4.884;2024-02-21T14:52:24;6.53;;;2.60;;
82850;SDS011;72609;45.768;4.884;2024-02-21T14:54:50;4.38;;;2.60;;
82850;SDS011;72609;45.768;4.884;2024-02-21T14:57:19;4.28;;;2.20;;
82850;SDS011;72609;45.768;4.884;2024-02-21T15:02:11;6.25;;;2.33;;